Time;durP1;ratioP1;P1;durP2;ratioP2;P2;SDS_P1;SDS_P2;PMS_P1;PMS_P2;Temp;Humidity;BMP_temperature;BMP_pressure;BME280_temperature;BME280_humidity;BME280_pressure;Samples;Min_cycle;Max_cycle;Signal;HPM_P1;HPM_P2
2021/12/13 00:00:18;;;;;;;;;43.25;39.00;2.20;99.90;;;;;;5057739;28;8759;-67
2021/12/13 00:02:55;;;;;;;;;32.75;32.50;2.30;99.90;;;;;;5057768;28;8848;-66
2021/12/13 00:05:46;;;;;;;;;30.25;30.25;2.30;99.90;;;;;;5057786;28;9378;-67
2021/12/13 00:08:19;;;;;;;;;28.50;28.50;2.30;99.90;;;;;;5057444;28;8953;-68
2021/12/13 00:10:51;;;;;;;;;26.75;25.75;2.30;99.90;;;;;;5057302;28;8809;-67
2021/12/13 00:13:22;;;;;;;;;34.75;34.75;2.20;99.90;;;;;;5057550;28;8786;-68
2021/12/13 00:15:53;;;;;;;;;33.00;33.00;2.20;99.90;;;;;;5057549;28;8897;-67
2021/12/13 00:18:24;;;;;;;;;32.00;32.00;2.20;99.90;;;;;;5057197;28;8783;-65
2021/12/13 00:20:58;;;;;;;;;35.75;35.50;2.10;99.90;;;;;;5057176;28;8848;-66
2021/12/13 00:23:31;;;;;;;;;36.75;36.75;2.20;99.90;;;;;;5055582;28;8766;-67
2021/12/13 00:26:00;;;;;;;;;33.25;33.25;2.10;99.90;;;;;;5057032;28;8759;-64
2021/12/13 00:28:31;;;;;;;;;30.25;30.25;2.10;99.90;;;;;;5057197;28;8771;-67
2021/12/13 00:31:20;;;;;;;;;22.00;22.00;2.10;99.90;;;;;;5056925;28;8814;-72
2021/12/13 00:34:30;;;;;;;;;33.25;31.25;2.10;99.90;;;;;;5056882;28;8781;-69
2021/12/13 00:37:06;;;;;;;;;38.50;38.50;2.30;99.90;;;;;;5037991;28;8784;-69
2021/12/13 00:39:40;;;;;;;;;31.50;31.50;2.40;99.90;;;;;;5054571;28;8954;-69
2021/12/13 00:42:07;;;;;;;;;29.50;29.50;2.40;99.90;;;;;;5054621;28;8772;-67
2021/12/13 00:44:41;;;;;;;;;42.25;39.75;2.40;99.90;;;;;;5054678;28;8851;-69
2021/12/13 00:47:13;;;;;;;;;34.50;34.50;2.50;99.90;;;;;;5054495;28;8768;-68
2021/12/13 00:49:44;;;;;;;;;38.75;37.50;2.40;99.90;;;;;;5054469;28;8760;-68
2021/12/13 00:52:17;;;;;;;;;24.50;24.50;2.50;99.90;;;;;;5054532;28;8810;-69
2021/12/13 00:54:45;;;;;;;;;34.25;34.25;2.40;99.90;;;;;;5054401;28;8806;-69
2021/12/13 00:57:37;;;;;;;;;19.00;19.00;2.90;99.90;;;;;;5054428;28;8764;-67
2021/12/13 01:00:21;;;;;;;;;33.50;33.50;2.60;99.90;;;;;;5054235;28;8863;-69
2021/12/13 01:02:52;;;;;;;;;37.50;36.50;2.40;99.90;;;;;;5053842;28;8768;-69
2021/12/13 01:05:41;;;;;;;;;29.25;29.25;2.20;99.90;;;;;;5054243;28;8784;-68
2021/12/13 01:08:28;;;;;;;;;33.75;33.75;2.20;99.90;;;;;;5055317;28;9477;-69
2021/12/13 01:10:54;;;;;;;;;33.75;33.25;2.30;99.90;;;;;;5056093;28;8822;-69
2021/12/13 01:13:26;;;;;;;;;36.75;36.00;2.70;99.90;;;;;;5056401;28;8802;-69
2021/12/13 01:16:12;;;;;;;;;33.50;33.50;2.50;99.90;;;;;;5056174;28;8767;-68
2021/12/13 01:19:13;;;;;;;;;35.00;35.00;2.40;99.90;;;;;;5056080;28;8860;-70
2021/12/13 01:22:20;;;;;;;;;33.50;32.75;2.40;99.90;;;;;;5056264;28;8778;-69
2021/12/13 01:27:32;;;;;;;;;32.00;32.00;2.40;99.90;;;;;;5056178;28;8735;-68
2021/12/13 01:29:59;;;;;;;;;37.25;37.25;2.30;99.90;;;;;;5055750;28;8780;-68
2021/12/13 01:32:33;;;;;;;;;27.25;27.00;2.30;99.90;;;;;;5055808;28;8844;-67
2021/12/13 01:34:59;;;;;;;;;26.75;26.75;2.50;99.90;;;;;;5056001;28;8771;-68
2021/12/13 01:37:31;;;;;;;;;36.25;36.25;2.30;99.90;;;;;;5055512;28;8787;-68
2021/12/13 01:40:06;;;;;;;;;33.25;31.25;2.40;99.90;;;;;;5055649;28;8783;-68
2021/12/13 01:42:32;;;;;;;;;40.00;37.50;2.50;99.90;;;;;;5055578;28;8829;-68
2021/12/13 01:45:04;;;;;;;;;42.25;41.00;2.70;99.90;;;;;;5055766;28;8890;-67
2021/12/13 01:47:37;;;;;;;;;31.00;31.00;2.50;99.90;;;;;;5055517;28;8806;-68
2021/12/13 01:50:16;;;;;;;;;40.25;40.25;2.60;99.90;;;;;;5058562;28;8806;-67
2021/12/13 01:52:43;;;;;;;;;38.00;38.00;2.40;99.90;;;;;;5060623;28;8791;-67
2021/12/13 01:55:24;;;;;;;;;30.00;28.75;2.30;99.90;;;;;;5065826;28;8794;-68
2021/12/13 01:58:07;;;;;;;;;29.00;29.00;2.40;99.90;;;;;;5055628;28;8767;-67
2021/12/13 02:03:22;;;;;;;;;27.25;27.25;2.50;99.90;;;;;;5055284;28;8754;-65
2021/12/13 02:05:49;;;;;;;;;34.25;34.25;2.60;99.90;;;;;;5054851;28;8893;-67
2021/12/13 02:08:20;;;;;;;;;33.50;33.50;2.50;99.90;;;;;;5055337;28;9425;-69
2021/12/13 02:10:51;;;;;;;;;31.25;31.25;2.50;99.90;;;;;;5054996;28;8929;-69
2021/12/13 02:13:22;;;;;;;;;31.50;30.00;2.50;99.90;;;;;;5055007;28;8763;-68
2021/12/13 02:18:41;;;;;;;;;32.25;32.00;2.30;99.90;;;;;;5055052;28;8763;-68
2021/12/13 02:21:25;;;;;;;;;32.25;32.25;2.30;99.90;;;;;;5054918;28;8783;-67
2021/12/13 02:23:55;;;;;;;;;30.00;28.25;2.50;99.90;;;;;;5054846;28;8840;-69
2021/12/13 02:26:21;;;;;;;;;32.50;32.50;2.40;99.90;;;;;;5054778;28;8881;-69
2021/12/13 02:28:54;;;;;;;;;42.25;35.50;2.40;99.90;;;;;;5054789;28;8777;-69
2021/12/13 02:31:27;;;;;;;;;25.75;25.75;2.40;99.90;;;;;;5054881;28;8826;-69
2021/12/13 02:34:02;;;;;;;;;31.25;31.25;2.30;99.90;;;;;;5054762;28;8763;-68
2021/12/13 02:36:38;;;;;;;;;32.50;29.75;2.40;99.90;;;;;;5054868;28;9546;-69
2021/12/13 02:39:18;;;;;;;;;30.25;30.25;2.50;99.90;;;;;;5055144;28;8826;-69
2021/12/13 02:41:45;;;;;;;;;30.00;30.00;2.60;99.90;;;;;;5054509;28;8771;-69
2021/12/13 02:44:28;;;;;;;;;27.50;27.50;2.70;99.90;;;;;;5054803;28;8789;-69
2021/12/13 02:47:00;;;;;;;;;30.50;30.50;2.60;99.90;;;;;;5054516;28;8779;-69
2021/12/13 02:49:26;;;;;;;;;26.50;26.50;2.50;99.90;;;;;;5054508;28;8844;-68
2021/12/13 02:51:57;;;;;;;;;30.00;28.50;2.50;99.90;;;;;;5054339;28;8822;-70
2021/12/13 02:54:26;;;;;;;;;37.25;35.50;2.30;99.90;;;;;;5054406;28;8803;-69
2021/12/13 02:57:07;;;;;;;;;31.00;29.50;2.40;99.90;;;;;;5054397;28;8771;-69
2021/12/13 02:59:36;;;;;;;;;33.75;33.50;2.40;99.90;;;;;;5054588;28;8831;-67
2021/12/13 03:02:11;;;;;;;;;37.75;37.75;2.40;99.90;;;;;;5054273;28;8775;-67
2021/12/13 03:04:38;;;;;;;;;35.50;35.50;2.70;99.90;;;;;;5054353;28;8801;-69
2021/12/13 03:07:11;;;;;;;;;33.50;32.50;2.60;99.90;;;;;;5054077;28;8815;-69
2021/12/13 03:09:40;;;;;;;;;31.25;31.25;2.90;99.90;;;;;;5054253;28;8783;-68
2021/12/13 03:12:09;;;;;;;;;35.25;35.25;2.90;99.90;;;;;;5054166;28;8829;-70
2021/12/13 03:14:44;;;;;;;;;34.50;34.50;3.00;99.90;;;;;;5054431;28;8770;-68
2021/12/13 03:17:19;;;;;;;;;27.50;27.50;2.90;99.90;;;;;;5054179;28;8787;-67
2021/12/13 03:19:54;;;;;;;;;26.75;26.75;2.70;99.90;;;;;;5054409;28;8786;-68
2021/12/13 03:22:53;;;;;;;;;32.25;32.25;2.50;99.90;;;;;;5054082;28;8779;-70
2021/12/13 03:25:28;;;;;;;;;30.50;29.00;2.60;99.90;;;;;;5054626;28;8767;-67
2021/12/13 03:28:19;;;;;;;;;32.75;32.75;2.70;99.90;;;;;;5058343;28;8771;-67
2021/12/13 03:30:59;;;;;;;;;31.25;30.75;2.60;99.90;;;;;;5057990;28;8909;-68
2021/12/13 03:33:54;;;;;;;;;32.50;32.25;2.50;99.90;;;;;;5058030;28;8759;-69
2021/12/13 03:36:24;;;;;;;;;35.25;34.00;2.40;99.90;;;;;;5057430;28;8782;-66
2021/12/13 03:38:55;;;;;;;;;30.50;28.75;2.40;99.90;;;;;;5058154;28;8811;-68
2021/12/13 03:41:24;;;;;;;;;32.50;32.50;2.60;99.90;;;;;;5058094;28;8767;-67
2021/12/13 03:43:53;;;;;;;;;31.75;31.75;2.70;99.90;;;;;;5057764;28;8786;-68
2021/12/13 03:46:23;;;;;;;;;22.25;21.75;3.00;99.90;;;;;;5057803;28;8882;-68
2021/12/13 03:48:52;;;;;;;;;23.25;22.50;2.80;99.90;;;;;;5058041;28;8771;-69
2021/12/13 03:51:26;;;;;;;;;32.25;32.25;2.60;99.90;;;;;;5057627;28;8905;-68
2021/12/13 03:53:55;;;;;;;;;32.50;32.50;2.50;99.90;;;;;;5057920;28;8771;-69
2021/12/13 03:56:29;;;;;;;;;41.00;40.50;2.50;99.90;;;;;;5057557;28;8786;-70
2021/12/13 03:59:08;;;;;;;;;30.00;29.50;2.40;99.90;;;;;;5057565;28;8771;-69
2021/12/13 04:01:42;;;;;;;;;26.25;26.25;2.50;99.90;;;;;;5061229;28;8899;-67
2021/12/13 04:04:23;;;;;;;;;29.50;29.50;2.50;99.90;;;;;;5066335;28;8782;-69
2021/12/13 04:07:01;;;;;;;;;27.25;27.25;2.30;99.90;;;;;;5056202;28;8819;-68
2021/12/13 04:09:29;;;;;;;;;29.50;29.50;2.20;99.90;;;;;;5057763;28;8810;-68
2021/12/13 04:11:57;;;;;;;;;26.50;26.50;2.40;99.90;;;;;;5057212;28;8814;-68
2021/12/13 04:14:29;;;;;;;;;17.50;17.50;2.40;99.90;;;;;;5057168;28;8784;-67
2021/12/13 04:17:33;;;;;;;;;28.75;27.25;2.30;99.90;;;;;;5057493;28;8834;-68
2021/12/13 04:20:00;;;;;;;;;25.75;25.75;2.40;99.90;;;;;;5057373;28;8779;-69
2021/12/13 04:22:32;;;;;;;;;32.75;32.75;2.30;99.90;;;;;;5057098;28;8774;-68
2021/12/13 04:25:03;;;;;;;;;33.50;29.25;2.20;99.90;;;;;;5057087;28;8779;-67
2021/12/13 04:27:36;;;;;;;;;26.50;26.50;2.40;99.90;;;;;;5057096;28;8783;-69
2021/12/13 04:30:27;;;;;;;;;25.75;25.75;2.30;99.90;;;;;;5056938;28;8783;-69
2021/12/13 04:32:58;;;;;;;;;30.50;30.50;2.10;99.90;;;;;;5056944;28;8779;-68
2021/12/13 04:35:26;;;;;;;;;29.50;29.50;2.10;99.90;;;;;;5056909;28;8775;-68
2021/12/13 04:37:54;;;;;;;;;28.25;28.25;2.10;99.90;;;;;;5056030;28;8795;-67
2021/12/13 04:40:27;;;;;;;;;28.75;28.75;2.00;99.90;;;;;;5056706;28;8759;-68
2021/12/13 04:43:07;;;;;;;;;33.75;32.25;2.00;99.90;;;;;;5056663;28;8799;-69
2021/12/13 04:45:34;;;;;;;;;31.25;29.00;1.90;99.90;;;;;;5056927;28;8896;-69
2021/12/13 04:48:23;;;;;;;;;26.75;26.75;2.10;99.90;;;;;;5056626;28;8759;-68
2021/12/13 04:51:06;;;;;;;;;31.50;31.50;2.10;99.90;;;;;;5056562;28;8798;-69
2021/12/13 04:53:40;;;;;;;;;30.00;30.00;2.30;99.90;;;;;;5056497;28;8794;-68
2021/12/13 04:56:10;;;;;;;;;30.50;30.50;2.30;99.90;;;;;;5055295;28;8852;-68
2021/12/13 04:58:38;;;;;;;;;29.50;28.00;2.20;99.90;;;;;;5056707;28;8833;-68
2021/12/13 05:01:07;;;;;;;;;36.00;34.00;2.10;99.90;;;;;;5062103;28;8769;-67
2021/12/13 05:03:39;;;;;;;;;27.50;24.75;2.20;99.90;;;;;;5061565;28;8798;-67
2021/12/13 05:06:10;;;;;;;;;30.50;30.50;2.40;99.90;;;;;;5064927;28;8901;-69
2021/12/13 05:08:40;;;;;;;;;31.50;31.50;2.30;99.90;;;;;;5056543;28;8848;-69
2021/12/13 05:11:08;;;;;;;;;21.50;21.00;2.10;99.90;;;;;;5056397;28;8829;-65
2021/12/13 05:13:51;;;;;;;;;26.75;26.25;2.00;99.90;;;;;;5062493;28;9566;-68
2021/12/13 05:16:26;;;;;;;;;34.50;34.50;2.20;99.90;;;;;;5065959;28;8764;-67
2021/12/13 05:18:54;;;;;;;;;29.00;29.00;2.40;99.90;;;;;;5064824;28;9460;-66
2021/12/13 05:21:43;;;;;;;;;29.25;29.25;2.40;99.90;;;;;;5060587;28;8783;-68
2021/12/13 05:24:17;;;;;;;;;32.75;30.75;2.30;99.90;;;;;;5065661;28;8801;-68
2021/12/13 05:26:46;;;;;;;;;33.50;33.25;2.40;99.90;;;;;;5062713;28;8873;-65
2021/12/13 05:29:29;;;;;;;;;11.00;9.00;2.30;99.90;;;;;;5067104;28;8789;-68
2021/12/13 05:31:59;;;;;;;;;41.00;39.75;2.30;99.90;;;;;;5061905;28;8800;-68
2021/12/13 05:34:45;;;;;;;;;35.75;35.75;2.20;99.90;;;;;;5055849;28;8797;-67
2021/12/13 05:37:11;;;;;;;;;38.00;37.75;2.30;99.90;;;;;;5066739;28;8780;-68
2021/12/13 05:39:52;;;;;;;;;23.50;23.50;2.30;99.90;;;;;;5057778;28;8793;-68
2021/12/13 05:42:18;;;;;;;;;43.25;41.75;2.40;99.90;;;;;;5067809;28;8761;-66
2021/12/13 05:44:46;;;;;;;;;35.00;35.00;2.50;99.90;;;;;;5062696;28;8791;-69
2021/12/13 05:47:26;;;;;;;;;36.75;36.75;2.50;99.90;;;;;;5072851;28;8829;-67
2021/12/13 05:49:53;;;;;;;;;35.50;35.50;2.30;99.90;;;;;;5069828;28;8910;-69
2021/12/13 05:52:24;;;;;;;;;35.00;33.75;2.30;99.90;;;;;;5065624;28;8802;-68
2021/12/13 05:54:59;;;;;;;;;32.25;32.25;2.40;99.90;;;;;;5058809;28;8802;-63
2021/12/13 05:57:34;;;;;;;;;32.75;30.00;2.50;99.90;;;;;;5058940;28;8819;-64
2021/12/13 06:00:14;;;;;;;;;29.00;29.00;2.60;99.90;;;;;;5067534;28;8814;-66
2021/12/13 06:02:58;;;;;;;;;38.50;36.50;2.30;99.90;;;;;;5068743;28;8794;-70
2021/12/13 06:05:48;;;;;;;;;37.00;36.50;2.40;99.90;;;;;;5058311;28;8798;-68
2021/12/13 06:08:25;;;;;;;;;40.75;40.00;2.40;99.90;;;;;;5055177;28;8834;-65
2021/12/13 06:10:55;;;;;;;;;28.50;28.50;2.10;99.90;;;;;;5065557;28;8885;-65
2021/12/13 06:13:44;;;;;;;;;33.25;33.25;2.30;99.90;;;;;;5075075;28;8859;-66
2021/12/13 06:16:31;;;;;;;;;41.00;40.00;2.30;99.90;;;;;;5074815;28;8753;-68
2021/12/13 06:19:11;;;;;;;;;48.25;44.25;2.20;99.90;;;;;;5074861;28;8768;-66
2021/12/13 06:21:54;;;;;;;;;33.50;33.50;2.20;99.90;;;;;;5075085;28;8833;-66
2021/12/13 06:24:29;;;;;;;;;33.75;32.75;2.30;99.90;;;;;;5074818;28;8857;-66
2021/12/13 06:27:12;;;;;;;;;37.25;37.00;2.50;99.90;;;;;;5074701;28;8763;-66
2021/12/13 06:29:47;;;;;;;;;39.25;39.25;2.40;99.90;;;;;;5074977;28;8768;-67
2021/12/13 06:32:27;;;;;;;;;41.50;41.25;2.50;99.90;;;;;;5074608;28;8807;-67
2021/12/13 06:34:53;;;;;;;;;46.50;41.75;2.60;99.90;;;;;;5074870;28;8784;-66
2021/12/13 06:37:30;;;;;;;;;36.50;36.50;2.70;99.90;;;;;;5074463;28;8883;-66
2021/12/13 06:40:26;;;;;;;;;32.25;32.25;2.90;99.90;;;;;;5074693;28;8803;-67
2021/12/13 06:42:53;;;;;;;;;37.75;37.75;2.80;99.90;;;;;;5074552;28;8768;-69
2021/12/13 06:45:27;;;;;;;;;35.50;34.25;2.50;99.90;;;;;;5074798;28;8760;-67
2021/12/13 06:47:56;;;;;;;;;42.25;39.00;2.50;99.90;;;;;;5074390;28;9559;-67
2021/12/13 06:50:27;;;;;;;;;39.50;39.00;2.50;99.90;;;;;;5074675;28;9639;-66
2021/12/13 06:53:16;;;;;;;;;35.50;34.75;2.30;99.90;;;;;;5074546;28;8757;-68
2021/12/13 06:55:44;;;;;;;;;39.50;39.00;2.40;99.90;;;;;;5074752;28;8784;-68
2021/12/13 06:58:29;;;;;;;;;35.25;35.25;2.50;99.90;;;;;;5074430;28;8795;-67
2021/12/13 07:01:06;;;;;;;;;48.75;41.00;2.50;99.90;;;;;;5074297;28;8752;-67
2021/12/13 07:03:34;;;;;;;;;35.75;35.75;2.50;99.90;;;;;;5074362;28;8765;-66
2021/12/13 07:06:04;;;;;;;;;36.50;36.50;2.60;99.90;;;;;;5074260;28;8752;-67
2021/12/13 07:08:35;;;;;;;;;39.75;39.75;2.60;99.90;;;;;;5074571;28;8813;-68
2021/12/13 07:11:13;;;;;;;;;39.50;39.50;2.60;99.90;;;;;;5074534;28;8812;-66
2021/12/13 07:13:48;;;;;;;;;27.50;27.50;2.60;99.90;;;;;;5074287;28;8791;-67
2021/12/13 07:16:22;;;;;;;;;34.50;34.50;2.80;99.90;;;;;;5074230;28;8784;-65
2021/12/13 07:18:57;;;;;;;;;43.75;41.50;2.60;99.90;;;;;;5074150;28;8859;-66
2021/12/13 07:21:25;;;;;;;;;37.00;37.00;2.60;99.90;;;;;;5074419;28;9555;-66
2021/12/13 07:23:56;;;;;;;;;32.50;32.50;2.60;99.90;;;;;;5074392;28;8780;-65
2021/12/13 07:26:31;;;;;;;;;36.50;34.25;2.90;99.90;;;;;;5074054;28;8784;-66
2021/12/13 07:28:58;;;;;;;;;39.75;39.75;2.90;99.90;;;;;;5074333;28;8756;-66
2021/12/13 07:31:25;;;;;;;;;36.25;35.50;3.00;99.90;;;;;;5073980;28;8804;-64
2021/12/13 07:33:51;;;;;;;;;36.00;35.75;3.00;99.90;;;;;;5074032;28;8761;-65
2021/12/13 07:36:29;;;;;;;;;49.00;42.50;3.10;99.90;;;;;;5074288;28;9473;-66
2021/12/13 07:39:00;;;;;;;;;35.00;34.00;3.00;99.90;;;;;;5074295;28;8826;-66
2021/12/13 07:41:43;;;;;;;;;42.00;42.00;3.00;99.90;;;;;;5074206;28;8794;-66
2021/12/13 07:44:14;;;;;;;;;43.75;41.50;3.00;99.90;;;;;;5074252;28;8772;-66
2021/12/13 07:46:41;;;;;;;;;51.00;46.50;2.90;99.90;;;;;;5074229;28;8773;-66
2021/12/13 07:49:12;;;;;;;;;45.25;43.25;2.90;99.90;;;;;;5072726;28;8784;-66
2021/12/13 07:51:48;;;;;;;;;41.00;40.25;2.90;99.90;;;;;;5073803;28;8819;-64
2021/12/13 07:54:18;;;;;;;;;54.25;48.25;2.80;99.90;;;;;;5073822;28;8776;-66
2021/12/13 07:56:48;;;;;;;;;52.75;48.25;2.90;99.90;;;;;;5074133;28;8776;-65
2021/12/13 07:59:31;;;;;;;;;51.00;46.50;3.00;99.90;;;;;;5073858;28;8760;-65
2021/12/13 08:02:01;;;;;;;;;54.25;49.00;3.30;99.80;;;;;;5073782;28;8794;-65
2021/12/13 08:04:33;;;;;;;;;52.00;47.00;3.20;99.90;;;;;;5073989;28;8769;-65
2021/12/13 08:07:08;;;;;;;;;52.75;47.50;3.00;99.90;;;;;;5073477;28;8796;-66
2021/12/13 08:09:57;;;;;;;;;39.25;39.25;3.00;99.90;;;;;;5074215;28;8816;-64
2021/12/13 08:12:47;;;;;;;;;48.25;45.50;3.00;99.90;;;;;;5070945;28;8899;-66
2021/12/13 08:15:14;;;;;;;;;47.25;44.00;3.20;99.90;;;;;;5077197;28;8795;-66
2021/12/13 08:17:49;;;;;;;;;37.75;37.75;3.30;99.90;;;;;;5077250;28;8780;-65
2021/12/13 08:20:46;;;;;;;;;52.50;47.25;3.30;99.90;;;;;;5077335;28;8799;-65
2021/12/13 08:23:22;;;;;;;;;54.50;48.50;3.50;98.80;;;;;;5076629;28;8800;-65
2021/12/13 08:25:52;;;;;;;;;45.50;44.00;3.20;99.40;;;;;;5077061;28;8756;-65
2021/12/13 08:28:25;;;;;;;;;45.50;42.00;3.10;99.90;;;;;;5077018;28;8791;-66
2021/12/13 08:30:56;;;;;;;;;46.00;41.00;3.00;99.90;;;;;;5076983;28;8811;-64
2021/12/13 08:33:51;;;;;;;;;38.75;37.25;2.80;99.90;;;;;;5077221;28;8890;-65
2021/12/13 08:36:44;;;;;;;;;39.50;38.25;2.90;99.90;;;;;;5076965;28;8749;-63
2021/12/13 08:39:21;;;;;;;;;45.25;43.25;3.10;99.90;;;;;;5076206;28;8804;-67
2021/12/13 08:41:52;;;;;;;;;51.50;46.50;3.20;99.90;;;;;;5076864;28;8853;-64
2021/12/13 08:44:29;;;;;;;;;43.00;41.50;3.20;99.90;;;;;;5077092;28;8756;-64
2021/12/13 08:46:57;;;;;;;;;56.50;49.50;3.20;99.30;;;;;;5076560;28;8780;-63
2021/12/13 08:49:41;;;;;;;;;47.00;44.00;3.00;99.90;;;;;;5076637;28;8768;-65
2021/12/13 08:52:13;;;;;;;;;45.00;43.00;2.90;99.90;;;;;;5076518;28;8784;-65
2021/12/13 08:55:11;;;;;;;;;37.75;37.75;2.90;99.90;;;;;;5076845;28;8752;-65
2021/12/13 08:57:49;;;;;;;;;38.00;38.00;2.60;99.90;;;;;;5076389;28;8776;-66
2021/12/13 09:00:52;;;;;;;;;46.25;43.50;2.60;99.90;;;;;;5076694;28;8783;-64
2021/12/13 09:03:24;;;;;;;;;45.25;42.50;2.70;99.90;;;;;;5076628;28;8768;-66
2021/12/13 09:06:07;;;;;;;;;43.75;41.75;3.00;99.90;;;;;;5076203;28;8764;-66
2021/12/13 09:08:36;;;;;;;;;70.00;59.75;3.10;99.90;;;;;;5076177;28;8780;-65
2021/12/13 09:11:29;;;;;;;;;71.50;59.25;3.10;99.90;;;;;;5076343;28;8788;-64
2021/12/13 09:14:07;;;;;;;;;84.00;67.50;3.00;99.90;;;;;;5076033;28;8865;-64
2021/12/13 09:16:54;;;;;;;;;76.75;64.00;3.00;99.90;;;;;;5076122;28;8791;-65
2021/12/13 09:19:28;;;;;;;;;80.25;66.00;2.90;99.90;;;;;;5076163;28;8815;-66
2021/12/13 09:22:14;;;;;;;;;77.25;65.25;3.10;99.90;;;;;;5075895;28;8793;-66
2021/12/13 09:24:46;;;;;;;;;70.75;59.50;3.10;99.90;;;;;;5075654;28;8780;-66
2021/12/13 09:27:29;;;;;;;;;77.75;65.00;3.40;99.80;;;;;;5075824;28;8879;-64
2021/12/13 09:30:12;;;;;;;;;60.00;52.25;3.60;97.70;;;;;;5076083;28;8761;-66
2021/12/13 09:32:41;;;;;;;;;78.25;65.25;3.20;99.90;;;;;;5075740;28;8777;-65
2021/12/13 09:35:31;;;;;;;;;74.75;60.00;3.30;99.90;;;;;;5075956;28;8777;-64
2021/12/13 09:38:02;;;;;;;;;81.25;67.75;3.10;99.90;;;;;;5075812;28;9427;-66
2021/12/13 09:40:38;;;;;;;;;86.25;68.75;3.30;99.60;;;;;;5075803;28;9442;-64
2021/12/13 09:43:05;;;;;;;;;73.50;61.50;3.20;99.90;;;;;;5075797;28;8752;-62
2021/12/13 09:45:47;;;;;;;;;75.50;63.50;3.40;99.90;;;;;;5075456;28;8867;-65
2021/12/13 09:48:24;;;;;;;;;67.75;57.50;3.70;97.70;;;;;;5075638;28;8784;-65
2021/12/13 09:50:55;;;;;;;;;63.75;54.00;4.00;96.30;;;;;;5075381;28;8816;-64
2021/12/13 09:53:26;;;;;;;;;66.00;56.50;3.90;95.70;;;;;;5075388;28;8772;-64
2021/12/13 09:55:52;;;;;;;;;69.50;59.00;3.70;96.80;;;;;;5075434;28;8752;-65
2021/12/13 09:58:26;;;;;;;;;73.25;61.00;3.80;98.10;;;;;;5075242;28;8891;-65
2021/12/13 10:01:06;;;;;;;;;81.25;67.25;4.60;93.60;;;;;;5075426;28;8776;-65
2021/12/13 10:03:51;;;;;;;;;79.50;66.00;4.90;92.10;;;;;;5075410;28;8772;-64
2021/12/13 10:06:22;;;;;;;;;78.25;64.50;5.00;90.30;;;;;;5074942;28;8788;-65
2021/12/13 10:08:58;;;;;;;;;80.75;65.75;5.30;88.90;;;;;;5075137;28;8790;-65
2021/12/13 10:11:43;;;;;;;;;91.00;76.00;5.30;89.20;;;;;;5074964;28;8799;-64
2021/12/13 10:14:11;;;;;;;;;94.25;82.75;5.80;85.00;;;;;;5075169;28;9666;-65
2021/12/13 10:16:47;;;;;;;;;100.50;94.25;6.10;82.30;;;;;;5074919;28;8761;-66
2021/12/13 10:19:27;;;;;;;;;111.00;101.50;6.10;81.80;;;;;;5074901;28;8964;-64
2021/12/13 10:21:53;;;;;;;;;105.25;103.75;6.10;81.10;;;;;;5074813;28;8820;-66
2021/12/13 10:24:28;;;;;;;;;128.75;127.25;5.80;82.60;;;;;;5074686;28;8761;-66
2021/12/13 10:26:57;;;;;;;;;124.00;121.50;5.50;84.30;;;;;;5074712;28;8777;-63
2021/12/13 10:29:24;;;;;;;;;122.50;113.50;5.30;89.30;;;;;;5074879;28;9572;-63
2021/12/13 10:31:56;;;;;;;;;131.75;122.75;5.20;88.80;;;;;;5074573;28;8816;-65
2021/12/13 10:34:27;;;;;;;;;139.00;125.50;5.10;90.70;;;;;;5074699;28;8838;-64
2021/12/13 10:36:59;;;;;;;;;125.00;120.00;5.00;90.40;;;;;;5074303;28;8857;-63
2021/12/13 10:39:32;;;;;;;;;133.00;126.75;5.60;88.50;;;;;;5074819;28;8764;-65
2021/12/13 10:42:05;;;;;;;;;121.25;117.25;5.90;85.20;;;;;;5074505;28;8860;-64
2021/12/13 10:44:31;;;;;;;;;100.25;95.00;5.90;82.90;;;;;;5074444;28;8780;-64
2021/12/13 10:47:07;;;;;;;;;97.00;86.50;5.80;81.70;;;;;;5073449;28;8781;-65
2021/12/13 10:49:36;;;;;;;;;101.50;97.25;5.50;84.30;;;;;;5074840;28;8792;-65
2021/12/13 10:52:13;;;;;;;;;104.50;92.00;4.90;90.40;;;;;;5074320;28;8816;-63
2021/12/13 10:54:46;;;;;;;;;91.75;78.00;4.80;90.50;;;;;;5074363;28;8768;-65
2021/12/13 11:00:39;;;;;;;;;96.50;77.75;5.10;89.90;;;;;;5074379;28;8847;-64
2021/12/13 11:03:12;;;;;;;;;85.75;70.50;5.00;90.30;;;;;;5074282;28;8861;-65
2021/12/13 11:05:38;;;;;;;;;80.50;66.50;5.00;90.10;;;;;;5074636;28;9431;-65
2021/12/13 11:08:07;;;;;;;;;79.50;65.25;4.80;91.60;;;;;;5074137;28;8843;-64
2021/12/13 11:10:47;;;;;;;;;77.50;64.00;4.80;91.40;;;;;;5074135;28;8832;-65
2021/12/13 11:13:13;;;;;;;;;73.25;61.25;4.40;93.10;;;;;;5074531;28;9562;-64
2021/12/13 11:15:44;;;;;;;;;74.00;62.50;5.00;91.40;;;;;;5074153;28;8748;-64
2021/12/13 11:18:16;;;;;;;;;74.75;62.25;5.00;90.40;;;;;;5074213;28;8937;-63
2021/12/13 11:20:50;;;;;;;;;84.50;69.50;4.70;91.70;;;;;;5074114;28;8780;-65
2021/12/13 11:23:19;;;;;;;;;76.50;62.75;5.00;90.70;;;;;;5074168;28;8752;-65
2021/12/13 11:25:54;;;;;;;;;79.25;65.50;5.00;87.70;;;;;;5074042;28;8845;-65
2021/12/13 11:28:20;;;;;;;;;78.00;64.50;4.70;91.20;;;;;;5074373;28;8918;-65
2021/12/13 11:30:47;;;;;;;;;76.50;62.50;4.90;91.00;;;;;;5074227;28;8799;-64
2021/12/13 11:33:41;;;;;;;;;82.75;65.00;5.60;87.20;;;;;;5074256;28;8791;-65
2021/12/13 11:36:07;;;;;;;;;82.00;67.00;5.60;83.80;;;;;;5072810;28;9415;-64
2021/12/13 11:39:10;;;;;;;;;78.75;64.75;5.70;84.60;;;;;;5074181;28;9434;-64
2021/12/13 11:42:13;;;;;;;;;78.25;64.75;5.70;83.40;;;;;;5074168;28;8767;-65
2021/12/13 11:45:01;;;;;;;;;77.75;63.50;5.90;82.00;;;;;;5073734;28;8748;-64
2021/12/13 11:47:29;;;;;;;;;81.00;65.00;5.80;81.40;;;;;;5076019;28;8780;-65
2021/12/13 11:50:23;;;;;;;;;77.00;63.25;5.80;83.80;;;;;;5077949;28;8800;-64
2021/12/13 11:53:19;;;;;;;;;79.75;65.00;5.80;82.40;;;;;;5077677;28;8796;-65
2021/12/13 11:56:16;;;;;;;;;81.75;64.75;5.80;82.90;;;;;;5077461;28;8772;-65
2021/12/13 11:59:10;;;;;;;;;82.00;63.50;5.70;81.30;;;;;;5077576;28;8886;-66
2021/12/13 12:02:00;;;;;;;;;84.25;65.00;5.20;86.30;;;;;;5072085;28;9484;-64
2021/12/13 12:05:05;;;;;;;;;80.75;67.00;4.80;89.90;;;;;;5061196;28;8783;-63
2021/12/13 12:07:52;;;;;;;;;78.00;64.25;4.70;90.50;;;;;;5075965;28;8793;-63
2021/12/13 12:10:24;;;;;;;;;79.25;64.50;4.60;91.10;;;;;;5074301;28;9609;-64
2021/12/13 12:13:03;;;;;;;;;82.50;67.25;4.50;92.10;;;;;;5074080;28;8854;-65
2021/12/13 12:15:30;;;;;;;;;76.00;63.25;4.60;91.50;;;;;;5075918;28;8776;-64
2021/12/13 12:18:03;;;;;;;;;71.00;59.75;4.50;91.90;;;;;;5076131;28;8803;-64
2021/12/13 12:20:35;;;;;;;;;80.25;66.25;4.30;92.10;;;;;;5076175;28;8785;-64
2021/12/13 12:23:06;;;;;;;;;76.75;63.50;4.50;92.00;;;;;;5075301;28;8782;-65
2021/12/13 12:25:36;;;;;;;;;74.25;58.50;4.60;91.60;;;;;;5073497;28;8776;-63
2021/12/13 12:28:15;;;;;;;;;75.00;62.25;5.30;88.70;;;;;;5075830;28;8811;-65
2021/12/13 12:30:46;;;;;;;;;61.75;53.25;5.50;85.70;;;;;;5073205;28;8820;-66
2021/12/13 12:33:31;;;;;;;;;74.00;60.50;5.70;81.80;;;;;;5073117;28;8887;-65
2021/12/13 12:36:00;;;;;;;;;68.50;57.50;5.70;81.80;;;;;;5073621;28;8769;-64
2021/12/13 12:38:35;;;;;;;;;73.00;61.25;5.70;80.80;;;;;;5075697;28;8779;-65
2021/12/13 12:41:06;;;;;;;;;76.75;63.00;5.70;83.10;;;;;;5072363;28;9583;-64
2021/12/13 12:43:36;;;;;;;;;73.75;61.00;6.00;78.70;;;;;;5073029;28;8795;-65
2021/12/13 12:46:08;;;;;;;;;75.50;61.50;5.90;80.10;;;;;;5075465;28;8757;-65
2021/12/13 12:48:39;;;;;;;;;76.50;62.75;5.90;79.90;;;;;;5071171;28;8788;-65
2021/12/13 12:51:09;;;;;;;;;71.75;58.75;6.00;81.50;;;;;;5075230;28;8813;-66
2021/12/13 12:53:40;;;;;;;;;66.75;55.00;6.60;78.00;;;;;;5073066;28;8752;-65
2021/12/13 12:56:08;;;;;;;;;71.00;59.00;6.50;76.40;;;;;;5075211;28;8761;-65
2021/12/13 12:58:56;;;;;;;;;68.00;55.25;6.20;79.20;;;;;;5072445;28;8741;-65
2021/12/13 13:01:39;;;;;;;;;67.75;55.75;6.90;75.10;;;;;;5076663;28;8764;-67
2021/12/13 13:04:10;;;;;;;;;62.00;53.75;6.70;74.80;;;;;;5076405;28;8791;-64
2021/12/13 13:06:46;;;;;;;;;67.00;56.00;6.70;78.30;;;;;;5074126;28;8801;-66
2021/12/13 13:09:12;;;;;;;;;70.50;57.50;7.20;75.20;;;;;;5066861;28;9987;-70
2021/12/13 13:11:38;;;;;;;;;70.50;58.75;7.50;72.60;;;;;;5065284;28;8798;-69
2021/12/13 13:14:16;;;;;;;;;78.75;65.50;7.70;70.50;;;;;;5069250;28;8795;-68
2021/12/13 13:16:55;;;;;;;;;76.50;63.00;7.50;71.40;;;;;;5072780;28;8786;-69
2021/12/13 13:19:32;;;;;;;;;97.75;78.50;7.80;70.50;;;;;;5071911;28;8796;-69
2021/12/13 13:22:04;;;;;;;;;96.00;83.50;7.90;70.60;;;;;;5074259;28;8753;-69
2021/12/13 13:24:30;;;;;;;;;88.75;74.50;7.70;69.60;;;;;;5072727;28;8804;-68
2021/12/13 13:26:56;;;;;;;;;91.00;79.00;7.50;70.20;;;;;;5075894;28;8780;-71
2021/12/13 13:29:23;;;;;;;;;85.50;72.75;7.00;72.10;;;;;;5076139;28;8849;-69
2021/12/13 13:31:57;;;;;;;;;78.50;63.75;6.90;73.70;;;;;;5075974;28;8807;-67
2021/12/13 13:34:33;;;;;;;;;77.75;62.25;6.80;73.20;;;;;;5076092;28;8776;-68
2021/12/13 13:37:09;;;;;;;;;67.50;57.25;5.70;79.70;;;;;;5075800;28;8757;-69
2021/12/13 13:39:46;;;;;;;;;72.75;57.50;5.50;82.90;;;;;;5075896;28;8780;-69